Time;durP1;ratioP1;P1;durP2;ratioP2;P2;SDS_P1;SDS_P2;PMS_P1;PMS_P2;Temp;Humidity;BMP_temperature;BMP_pressure;BME280_temperature;BME280_humidity;BME280_pressure;Samples;Min_cycle;Max_cycle;Signal;HPM_P1;HPM_P2
2022/03/01 00:01:21;;;;;;;4.20;2.75;;;20.50;47.20;;;;;;5016225;28;20046;-60
2022/03/01 00:03:46;;;;;;;5.25;2.42;;;20.50;47.20;;;;;;5015112;28;20092;-60
2022/03/01 00:06:12;;;;;;;3.80;2.50;;;20.40;47.10;;;;;;5016024;28;20083;-60
2022/03/01 00:08:38;;;;;;;5.20;2.55;;;20.40;47.10;;;;;;5015276;28;20054;-60
2022/03/01 00:11:03;;;;;;;4.40;2.58;;;20.40;47.20;;;;;;5015076;28;20470;-60
2022/03/01 00:13:29;;;;;;;3.25;2.13;;;20.40;47.10;;;;;;5015603;28;20037;-60
2022/03/01 00:15:54;;;;;;;6.18;3.20;;;20.40;47.90;;;;;;5015961;28;20053;-60
2022/03/01 00:18:20;;;;;;;3.55;2.50;;;20.40;47.20;;;;;;5015022;28;20442;-60
2022/03/01 00:20:45;;;;;;;4.25;2.60;;;20.40;47.20;;;;;;5015255;28;20060;-60
2022/03/01 00:23:11;;;;;;;3.97;2.45;;;20.30;47.10;;;;;;5015582;28;20128;-60
2022/03/01 00:25:37;;;;;;;4.20;2.83;;;20.30;47.10;;;;;;5014426;28;20048;-60
2022/03/01 00:28:03;;;;;;;4.95;2.97;;;20.30;47.20;;;;;;5015680;28;20038;-60
2022/03/01 00:30:28;;;;;;;3.90;2.60;;;20.30;47.20;;;;;;5012934;28;20049;-60
2022/03/01 00:32:54;;;;;;;3.90;2.50;;;20.30;47.20;;;;;;5015163;28;20045;-60
2022/03/01 00:35:19;;;;;;;3.47;2.33;;;20.30;47.20;;;;;;5015294;28;20041;-60
2022/03/01 00:37:45;;;;;;;3.92;2.67;;;20.30;47.20;;;;;;5014373;28;20049;-60
2022/03/01 00:40:11;;;;;;;4.18;2.70;;;20.30;47.20;;;;;;5015144;28;20046;-60
2022/03/01 00:42:36;;;;;;;4.40;2.55;;;20.30;47.20;;;;;;5014883;28;20096;-60
2022/03/01 00:45:02;;;;;;;4.07;2.72;;;20.30;47.20;;;;;;5014564;28;20048;-59
2022/03/01 00:47:28;;;;;;;3.65;2.53;;;20.20;47.10;;;;;;5014833;28;20096;-60
2022/03/01 00:49:53;;;;;;;4.60;2.70;;;20.20;47.10;;;;;;5015191;28;20056;-60
2022/03/01 00:52:19;;;;;;;4.80;2.60;;;20.20;47.10;;;;;;5014172;28;20468;-60
2022/03/01 00:54:44;;;;;;;3.78;2.40;;;20.20;47.10;;;;;;5014568;28;20048;-59
2022/03/01 00:57:10;;;;;;;3.60;2.75;;;20.20;47.10;;;;;;5015095;28;20137;-60
2022/03/01 00:59:35;;;;;;;4.57;2.42;;;20.20;47.10;;;;;;5013863;28;20046;-60
2022/03/01 01:02:01;;;;;;;4.63;2.90;;;20.20;47.10;;;;;;5014987;28;20046;-60
2022/03/01 01:04:26;;;;;;;5.00;3.25;;;20.20;47.10;;;;;;5014365;28;20050;-60
2022/03/01 01:06:52;;;;;;;5.13;2.75;;;20.10;47.00;;;;;;5013711;28;20100;-60
2022/03/01 01:09:17;;;;;;;4.43;2.67;;;20.20;47.10;;;;;;5014326;28;20061;-59
2022/03/01 01:11:43;;;;;;;5.65;3.10;;;20.20;47.20;;;;;;5013311;28;20394;-60
2022/03/01 01:14:08;;;;;;;5.32;2.70;;;20.10;47.10;;;;;;5014070;28;20096;-60
2022/03/01 01:16:34;;;;;;;4.50;2.67;;;20.10;47.10;;;;;;5014288;28;20077;-60
2022/03/01 01:18:59;;;;;;;4.20;2.88;;;20.10;47.10;;;;;;5014531;28;20056;-60
2022/03/01 01:22:39;;;;;;;3.97;2.60;;;20.10;47.10;;;;;;5013163;28;20050;-60
2022/03/01 01:24:11;;;;;;;5.82;3.40;;;20.10;47.00;;;;;;5014020;28;20054;-60
2022/03/01 01:26:36;;;;;;;4.55;2.80;;;20.10;47.10;;;;;;5014339;28;20048;-60
2022/03/01 01:29:02;;;;;;;5.38;2.72;;;20.00;47.00;;;;;;5012671;28;20080;-60
2022/03/01 01:31:27;;;;;;;3.92;2.58;;;20.10;47.00;;;;;;5014329;28;20122;-60
2022/03/01 01:33:53;;;;;;;2.95;2.38;;;20.10;47.10;;;;;;5013795;28;20096;-60
2022/03/01 01:36:18;;;;;;;4.00;2.67;;;20.00;47.00;;;;;;5012538;28;20077;-60
2022/03/01 01:38:44;;;;;;;3.42;2.42;;;20.00;47.00;;;;;;5014014;28;20584;-60
2022/03/01 01:41:09;;;;;;;3.80;2.40;;;20.00;47.10;;;;;;5013540;28;20046;-61
2022/03/01 01:43:35;;;;;;;4.32;2.78;;;20.00;47.10;;;;;;5013867;28;20092;-60
2022/03/01 01:46:00;;;;;;;3.65;2.58;;;20.00;47.00;;;;;;5014207;28;20566;-60
2022/03/01 01:48:26;;;;;;;3.72;2.65;;;20.00;47.00;;;;;;5013176;28;20477;-60
2022/03/01 01:50:51;;;;;;;5.15;2.90;;;20.00;47.00;;;;;;5013756;28;20053;-60
2022/03/01 01:53:17;;;;;;;3.92;2.50;;;20.00;47.00;;;;;;5013987;28;20108;-60
2022/03/01 01:55:42;;;;;;;3.25;2.33;;;19.90;47.10;;;;;;5011834;28;20038;-60
2022/03/01 01:58:08;;;;;;;4.43;2.78;;;20.00;47.00;;;;;;5014001;28;20046;-60
2022/03/01 02:00:33;;;;;;;5.38;2.78;;;20.00;47.00;;;;;;5013394;28;20041;-60
2022/03/01 02:02:59;;;;;;;4.70;2.58;;;19.90;47.00;;;;;;5012951;28;20042;-60
2022/03/01 02:05:26;;;;;;;4.47;2.80;;;19.90;47.00;;;;;;5013201;28;20077;-60
2022/03/01 02:07:51;;;;;;;3.60;2.70;;;19.90;47.00;;;;;;5013559;28;20049;-60
2022/03/01 02:10:17;;;;;;;3.88;2.65;;;19.90;47.00;;;;;;5012955;28;20101;-59
2022/03/01 02:12:42;;;;;;;4.03;2.60;;;19.90;47.00;;;;;;5013100;28;20064;-60
2022/03/01 02:15:08;;;;;;;5.47;2.97;;;19.90;47.00;;;;;;5013747;28;20470;-60
2022/03/01 02:17:34;;;;;;;5.30;3.13;;;19.90;47.00;;;;;;5012728;28;20096;-60
2022/03/01 02:19:59;;;;;;;4.53;3.00;;;19.90;47.00;;;;;;4979463;28;20401;-60
2022/03/01 02:22:34;;;;;;;4.35;2.90;;;19.90;47.00;;;;;;5012799;28;20042;-60
2022/03/01 02:25:00;;;;;;;3.83;2.55;;;19.90;47.00;;;;;;5012466;28;20045;-60
2022/03/01 02:27:25;;;;;;;4.32;3.03;;;19.90;46.90;;;;;;5013049;28;20041;-60
2022/03/01 02:29:51;;;;;;;4.32;2.95;;;19.80;46.80;;;;;;5013300;28;20037;-60
2022/03/01 02:32:16;;;;;;;4.35;2.90;;;19.90;46.90;;;;;;5012458;28;20042;-60
2022/03/01 02:34:42;;;;;;;4.78;2.65;;;19.90;46.90;;;;;;5012316;28;20038;-60
2022/03/01 02:37:07;;;;;;;4.45;2.90;;;19.90;46.90;;;;;;5012709;28;20136;-60
2022/03/01 02:39:33;;;;;;;5.50;2.70;;;19.90;46.90;;;;;;5012869;28;20398;-60
2022/03/01 02:41:59;;;;;;;4.53;2.90;;;19.90;46.90;;;;;;5013040;28;20482;-60
2022/03/01 02:44:24;;;;;;;4.15;3.00;;;19.90;46.80;;;;;;5012397;28;20048;-60
2022/03/01 02:46:50;;;;;;;4.70;2.83;;;19.90;46.90;;;;;;5012977;28;20042;-60
2022/03/01 02:49:15;;;;;;;4.43;3.08;;;19.90;46.80;;;;;;5013101;28;20042;-60
2022/03/01 02:51:41;;;;;;;3.75;2.92;;;19.90;46.90;;;;;;5012091;28;20042;-60
2022/03/01 02:54:06;;;;;;;3.63;2.50;;;19.90;46.80;;;;;;5012961;28;20065;-60
2022/03/01 02:56:32;;;;;;;3.53;2.60;;;19.90;46.80;;;;;;5013740;28;20497;-60
2022/03/01 02:58:59;;;;;;;4.78;3.28;;;19.90;46.90;;;;;;5011306;28;20087;-60
2022/03/01 03:01:25;;;;;;;4.00;2.67;;;19.90;46.80;;;;;;5013186;28;20061;-60
2022/03/01 03:03:51;;;;;;;3.70;2.40;;;20.00;46.90;;;;;;5013395;28;20054;-60
2022/03/01 03:06:17;;;;;;;4.70;3.10;;;19.90;46.80;;;;;;5011372;28;20068;-60
2022/03/01 03:08:43;;;;;;;3.70;2.55;;;19.90;46.70;;;;;;5012451;28;20096;-60
2022/03/01 03:11:08;;;;;;;4.03;2.90;;;20.00;46.80;;;;;;5012798;28;20078;-60
2022/03/01 03:13:34;;;;;;;4.47;2.92;;;20.00;46.80;;;;;;5012295;28;20046;-60
2022/03/01 03:15:59;;;;;;;4.10;2.83;;;20.00;47.50;;;;;;5012965;28;20077;-60
2022/03/01 03:18:25;;;;;;;3.85;2.95;;;20.00;46.70;;;;;;5012391;28;20460;-59
2022/03/01 03:20:50;;;;;;;4.10;2.85;;;20.00;46.70;;;;;;5012100;28;20041;-60
2022/03/01 03:23:16;;;;;;;4.35;3.03;;;20.00;46.70;;;;;;5012346;28;20045;-59
2022/03/01 03:25:41;;;;;;;4.72;2.80;;;20.00;46.70;;;;;;5012791;28;20042;-59
2022/03/01 03:28:07;;;;;;;4.22;3.25;;;20.00;46.60;;;;;;5011782;28;20073;-60
2022/03/01 03:30:32;;;;;;;4.18;3.05;;;20.00;46.60;;;;;;5012609;28;20553;-60
2022/03/01 03:32:58;;;;;;;5.13;3.03;;;20.00;46.60;;;;;;5012419;28;20084;-60
2022/03/01 03:35:23;;;;;;;3.80;2.72;;;20.00;46.60;;;;;;5014823;28;20052;-59
2022/03/01 03:37:49;;;;;;;4.50;2.90;;;20.00;46.60;;;;;;5016321;28;20042;-59
2022/03/01 03:40:14;;;;;;;4.68;2.95;;;20.10;46.70;;;;;;5016180;28;20038;-60
2022/03/01 03:42:41;;;;;;;4.65;3.00;;;20.10;46.70;;;;;;5015989;28;20112;-60
2022/03/01 03:45:07;;;;;;;4.47;3.00;;;20.10;46.70;;;;;;5016200;28;20053;-60
2022/03/01 03:47:33;;;;;;;4.72;3.10;;;20.10;46.60;;;;;;5015213;28;20137;-60
2022/03/01 03:49:58;;;;;;;5.03;3.13;;;20.10;46.60;;;;;;5016357;28;20081;-59
2022/03/01 03:52:24;;;;;;;4.40;2.97;;;20.10;46.60;;;;;;5015987;28;20049;-60
2022/03/01 03:54:50;;;;;;;4.47;3.20;;;20.10;46.60;;;;;;5015277;28;20067;-60
2022/03/01 03:57:16;;;;;;;3.85;2.83;;;20.10;46.60;;;;;;5015777;28;20551;-60
2022/03/01 03:59:41;;;;;;;4.30;2.95;;;20.10;46.60;;;;;;5016061;28;20041;-60
2022/03/01 04:02:07;;;;;;;4.85;3.17;;;20.10;46.60;;;;;;5013409;28;20513;-60
2022/03/01 04:04:33;;;;;;;4.13;3.00;;;20.10;46.60;;;;;;5016052;28;20053;-60
2022/03/01 04:06:59;;;;;;;4.95;2.85;;;20.10;46.50;;;;;;5015697;28;20379;-60
2022/03/01 04:09:24;;;;;;;4.43;2.80;;;20.10;46.50;;;;;;5014562;28;20510;-60
2022/03/01 04:11:50;;;;;;;4.53;3.00;;;20.10;46.50;;;;;;5015944;28;20132;-60
2022/03/01 04:14:17;;;;;;;5.22;3.47;;;20.20;46.60;;;;;;5015389;28;20049;-60
2022/03/01 04:16:44;;;;;;;4.25;3.00;;;20.10;46.50;;;;;;5014701;28;20564;-60
2022/03/01 04:19:10;;;;;;;5.15;3.05;;;20.20;46.50;;;;;;5015578;28;20050;-60
2022/03/01 04:21:35;;;;;;;5.28;3.13;;;20.20;46.50;;;;;;5015434;28;20112;-60
2022/03/01 04:24:01;;;;;;;4.53;3.15;;;20.10;46.50;;;;;;5014735;28;20054;-60
2022/03/01 04:26:27;;;;;;;3.42;2.92;;;20.20;46.50;;;;;;5015058;28;20125;-60
2022/03/01 04:28:53;;;;;;;4.35;2.97;;;20.20;46.50;;;;;;5015386;28;20128;-60
2022/03/01 04:31:19;;;;;;;4.25;2.88;;;20.20;46.50;;;;;;5013886;28;20080;-60
2022/03/01 04:33:45;;;;;;;5.72;3.28;;;20.20;46.50;;;;;;5015592;28;20068;-60
2022/03/01 04:36:10;;;;;;;4.38;2.90;;;20.20;46.50;;;;;;5014835;28;20486;-60
2022/03/01 04:38:36;;;;;;;4.97;3.13;;;20.20;46.50;;;;;;5014058;28;20045;-59
2022/03/01 04:41:01;;;;;;;5.30;3.35;;;20.20;46.50;;;;;;5015080;28;20050;-60
2022/03/01 04:43:27;;;;;;;4.35;3.10;;;20.20;46.50;;;;;;5014858;28;20100;-60
2022/03/01 04:45:52;;;;;;;4.40;3.03;;;20.10;46.50;;;;;;5014087;28;20046;-60
2022/03/01 04:48:18;;;;;;;5.03;3.40;;;20.10;46.40;;;;;;5015904;28;20046;-60
2022/03/01 04:50:43;;;;;;;4.68;3.00;;;20.10;46.40;;;;;;5014643;28;20088;-60
2022/03/01 04:53:10;;;;;;;4.07;2.83;;;20.10;46.40;;;;;;5014379;28;20046;-60
2022/03/01 04:55:36;;;;;;;4.38;3.10;;;20.10;46.40;;;;;;5015170;28;20057;-60
2022/03/01 04:58:02;;;;;;;4.70;3.17;;;20.20;46.50;;;;;;5014417;28;20042;-60
2022/03/01 05:00:27;;;;;;;4.63;3.25;;;20.10;46.50;;;;;;5014185;28;20041;-60
2022/03/01 05:02:53;;;;;;;4.75;3.20;;;20.10;46.40;;;;;;5014471;28;20053;-60
2022/03/01 05:05:18;;;;;;;4.22;3.17;;;20.10;46.40;;;;;;5013014;28;20052;-60
2022/03/01 05:07:47;;;;;;;4.75;3.00;;;20.10;46.40;;;;;;5014031;28;20054;-60
2022/03/01 05:10:17;;;;;;;5.28;3.15;;;20.20;47.20;;;;;;5014707;28;20058;-60
2022/03/01 05:12:47;;;;;;;5.28;3.40;;;20.10;46.40;;;;;;5014054;28;20042;-60
2022/03/01 05:15:12;;;;;;;4.13;3.00;;;20.10;46.40;;;;;;5014364;28;20489;-60
2022/03/01 05:17:38;;;;;;;4.35;2.90;;;20.20;46.40;;;;;;5014579;28;20041;-60
2022/03/01 05:20:04;;;;;;;5.15;3.33;;;20.20;46.40;;;;;;5013456;28;20045;-60
2022/03/01 05:22:30;;;;;;;4.72;3.33;;;20.20;46.40;;;;;;5014329;28;20037;-60
2022/03/01 05:24:56;;;;;;;4.45;3.13;;;20.20;46.30;;;;;;5014370;28;20466;-60
2022/03/01 05:27:21;;;;;;;3.92;2.88;;;20.20;46.40;;;;;;5013437;28;20042;-60
2022/03/01 05:29:47;;;;;;;3.80;2.92;;;20.20;46.40;;;;;;5014451;28;20437;-60
2022/03/01 05:32:12;;;;;;;4.60;3.47;;;20.20;46.40;;;;;;5014157;28;20053;-60
2022/03/01 05:34:38;;;;;;;4.55;3.30;;;20.20;46.30;;;;;;5013206;28;20124;-60
2022/03/01 05:37:03;;;;;;;5.53;3.60;;;20.20;46.30;;;;;;5014177;28;20478;-60
2022/03/01 05:39:29;;;;;;;4.55;3.05;;;20.20;46.30;;;;;;5013969;28;20054;-60
2022/03/01 05:41:54;;;;;;;4.43;3.30;;;20.20;46.30;;;;;;5013380;28;20493;-60
2022/03/01 05:44:20;;;;;;;4.97;3.15;;;20.20;46.30;;;;;;5013681;28;20052;-60
2022/03/01 05:46:46;;;;;;;4.95;3.40;;;20.20;46.30;;;;;;5014003;28;20042;-60
2022/03/01 05:49:11;;;;;;;4.40;3.22;;;20.20;46.30;;;;;;5013110;28;20502;-60
2022/03/01 05:51:37;;;;;;;4.60;3.08;;;20.20;46.20;;;;;;5013944;28;20430;-60
2022/03/01 05:54:02;;;;;;;5.07;3.15;;;20.20;46.20;;;;;;5013276;28;20161;-60
2022/03/01 05:56:28;;;;;;;4.47;3.20;;;20.20;46.20;;;;;;5011734;28;20103;-60
2022/03/01 05:58:53;;;;;;;4.50;3.28;;;20.20;46.20;;;;;;5013582;28;20077;-60
2022/03/01 06:01:19;;;;;;;5.28;3.30;;;20.20;46.20;;;;;;5012927;28;20485;-60
2022/03/01 06:03:44;;;;;;;5.30;3.53;;;20.20;46.20;;;;;;5013595;28;20524;-60
2022/03/01 06:06:10;;;;;;;5.30;3.78;;;20.20;46.30;;;;;;5013421;28;20045;-60
2022/03/01 06:08:35;;;;;;;5.00;3.20;;;20.20;46.20;;;;;;5012604;28;20054;-60
2022/03/01 06:11:01;;;;;;;5.32;3.60;;;20.20;46.20;;;;;;5013768;28;20052;-60
2022/03/01 06:13:27;;;;;;;4.70;3.22;;;20.20;46.20;;;;;;5013204;28;20537;-59
2022/03/01 06:15:52;;;;;;;4.55;3.40;;;20.20;46.20;;;;;;5012816;28;20056;-60
2022/03/01 06:18:18;;;;;;;4.68;3.03;;;20.20;46.20;;;;;;5013334;28;20041;-59
2022/03/01 06:20:44;;;;;;;5.28;3.30;;;20.20;46.20;;;;;;5013881;28;20053;-60
2022/03/01 06:23:10;;;;;;;4.30;3.28;;;20.20;46.20;;;;;;5012266;28;20074;-60
2022/03/01 06:25:35;;;;;;;4.63;3.17;;;20.20;46.20;;;;;;5013416;28;20124;-59
2022/03/01 06:28:00;;;;;;;4.95;3.28;;;20.20;46.20;;;;;;5011843;28;20410;-60
2022/03/01 06:30:26;;;;;;;4.55;2.97;;;20.20;46.20;;;;;;5011069;28;20042;-60
2022/03/01 06:32:52;;;;;;;4.55;3.25;;;20.20;46.20;;;;;;5012958;28;20049;-60
2022/03/01 06:35:17;;;;;;;4.47;2.88;;;20.20;46.20;;;;;;5013066;28;20092;-60
2022/03/01 06:37:43;;;;;;;4.60;3.20;;;20.20;46.20;;;;;;5012293;28;20049;-60
2022/03/01 06:40:08;;;;;;;4.32;3.22;;;20.20;46.20;;;;;;5012735;28;20050;-60
2022/03/01 06:42:34;;;;;;;5.05;3.50;;;20.20;46.10;;;;;;5013030;28;20049;-60
2022/03/01 06:45:00;;;;;;;5.25;3.45;;;20.20;46.10;;;;;;5012454;28;20120;-60
2022/03/01 06:47:25;;;;;;;5.03;3.40;;;20.20;46.10;;;;;;5012875;28;20367;-59
2022/03/01 06:49:51;;;;;;;4.93;3.40;;;20.20;46.10;;;;;;5012862;28;20053;-59
2022/03/01 06:52:17;;;;;;;4.80;3.50;;;20.20;46.10;;;;;;5010585;28;20483;-59
2022/03/01 06:54:42;;;;;;;4.30;2.88;;;20.20;46.20;;;;;;5013200;28;20042;-59
2022/03/01 06:57:08;;;;;;;5.80;3.47;;;20.20;46.10;;;;;;5012271;28;20504;-60
2022/03/01 06:59:34;;;;;;;5.25;3.42;;;20.20;46.20;;;;;;5012589;28;20058;-60
2022/03/01 07:01:59;;;;;;;5.45;3.42;;;20.20;46.20;;;;;;5012847;28;20125;-59
2022/03/01 07:04:25;;;;;;;6.72;3.80;;;20.30;46.10;;;;;;5011777;28;20050;-59
2022/03/01 07:06:50;;;;;;;5.07;3.15;;;20.20;46.00;;;;;;5012398;28;20521;-59
2022/03/01 07:09:16;;;;;;;6.40;4.07;;;20.30;45.90;;;;;;5015115;28;20375;-59
2022/03/01 07:11:42;;;;;;;5.93;4.05;;;20.30;45.60;;;;;;4998659;28;20513;-59
2022/03/01 07:14:08;;;;;;;5.47;3.65;;;20.30;45.40;;;;;;4996869;28;20494;-59
2022/03/01 07:16:33;;;;;;;5.97;3.83;;;20.30;45.40;;;;;;4997295;28;20533;-59
2022/03/01 07:19:00;;;;;;;5.82;3.35;;;20.30;45.50;;;;;;4996530;28;20050;-59
2022/03/01 07:21:26;;;;;;;6.85;3.75;;;20.30;45.50;;;;;;4996933;28;20100;-59
2022/03/01 07:23:51;;;;;;;5.85;3.83;;;20.30;45.40;;;;;;4997026;28;20050;-59
2022/03/01 07:26:17;;;;;;;8.43;3.92;;;20.30;45.50;;;;;;4995776;28;20402;-59
2022/03/01 07:28:43;;;;;;;4.93;3.53;;;20.30;45.60;;;;;;4997074;28;20105;-59
2022/03/01 07:31:08;;;;;;;5.45;3.28;;;20.30;45.60;;;;;;4996900;28;20046;-59
2022/03/01 07:33:34;;;;;;;7.50;3.60;;;20.40;45.70;;;;;;4996334;28;20052;-59
2022/03/01 07:36:00;;;;;;;7.43;4.05;;;20.40;45.80;;;;;;4996752;28;20039;-59
2022/03/01 07:38:26;;;;;;;6.05;4.05;;;20.40;45.80;;;;;;4996136;28;20406;-59
2022/03/01 07:40:51;;;;;;;8.02;3.88;;;20.40;45.90;;;;;;4996048;28;20046;-60
2022/03/01 07:43:17;;;;;;;6.55;3.92;;;20.40;46.00;;;;;;4996592;28;20045;-60
2022/03/01 07:45:42;;;;;;;6.03;4.03;;;20.40;46.20;;;;;;4996960;28;20046;-60
2022/03/01 07:48:10;;;;;;;6.32;3.85;;;20.40;46.20;;;;;;4995512;28;20453;-59
2022/03/01 07:50:36;;;;;;;6.85;3.90;;;20.50;46.40;;;;;;4996455;28;20515;-59
2022/03/01 07:53:01;;;;;;;6.10;3.63;;;20.50;46.50;;;;;;4996242;28;20050;-60
2022/03/01 07:55:29;;;;;;;6.22;3.88;;;20.50;46.40;;;;;;5009151;28;20045;-60
2022/03/01 07:57:54;;;;;;;6.50;4.47;;;20.50;46.50;;;;;;5015596;28;20077;-60
2022/03/01 08:00:21;;;;;;;6.28;3.65;;;20.50;46.50;;;;;;5015866;28;20131;-60
2022/03/01 08:02:47;;;;;;;6.65;3.97;;;20.60;46.60;;;;;;5014887;28;20405;-60
2022/03/01 08:05:13;;;;;;;5.82;4.10;;;20.60;46.60;;;;;;5015428;28;20050;-60
2022/03/01 08:07:38;;;;;;;5.65;3.97;;;20.60;46.50;;;;;;5014284;28;20061;-59
2022/03/01 08:10:04;;;;;;;6.28;3.75;;;20.60;46.60;;;;;;5014089;28;20046;-60
2022/03/01 08:12:30;;;;;;;7.65;3.97;;;20.60;46.60;;;;;;5015614;28;20049;-60
2022/03/01 08:14:55;;;;;;;6.75;4.05;;;20.60;46.50;;;;;;5015132;28;20085;-59
2022/03/01 08:17:21;;;;;;;5.75;3.90;;;20.70;46.50;;;;;;5015364;28;20081;-60
2022/03/01 08:19:47;;;;;;;8.60;4.07;;;20.60;46.40;;;;;;5015154;28;20121;-60
2022/03/01 08:22:13;;;;;;;6.20;3.95;;;20.60;46.20;;;;;;5013690;28;20046;-73
2022/03/01 08:24:38;;;;;;;5.82;3.95;;;20.70;46.20;;;;;;5014932;28;20152;-59
2022/03/01 08:27:04;;;;;;;7.97;4.07;;;20.70;46.20;;;;;;5014901;28;20132;-60
2022/03/01 08:29:29;;;;;;;6.68;3.65;;;20.70;46.20;;;;;;5013589;28;20056;-59
2022/03/01 08:31:55;;;;;;;8.88;3.92;;;20.70;46.40;;;;;;5015473;28;20050;-59
2022/03/01 08:34:20;;;;;;;8.93;4.35;;;20.70;46.40;;;;;;5015256;28;20053;-60
2022/03/01 08:36:46;;;;;;;6.53;4.65;;;20.70;46.30;;;;;;5014480;28;20042;-59
2022/03/01 08:39:11;;;;;;;6.78;3.90;;;20.70;46.20;;;;;;5014987;28;20077;-59
2022/03/01 08:41:37;;;;;;;9.75;3.97;;;20.70;46.20;;;;;;5016036;28;20072;-60
2022/03/01 08:44:03;;;;;;;6.90;3.92;;;20.80;46.30;;;;;;5034310;28;20081;-60
2022/03/01 08:46:29;;;;;;;7.30;3.63;;;20.70;46.20;;;;;;5035072;28;20079;-59
2022/03/01 08:48:55;;;;;;;5.90;4.00;;;20.80;46.40;;;;;;5034946;28;20077;-59
2022/03/01 08:51:21;;;;;;;8.05;4.45;;;20.80;46.40;;;;;;5033944;28;20124;-59
2022/03/01 08:53:47;;;;;;;7.05;4.03;;;20.80;46.40;;;;;;5034652;28;20072;-61
2022/03/01 08:56:14;;;;;;;6.28;4.00;;;20.80;46.30;;;;;;5034484;28;20038;-61
2022/03/01 08:58:40;;;;;;;6.55;4.22;;;20.80;46.00;;;;;;5034050;28;20052;-61
2022/03/01 09:01:05;;;;;;;7.32;4.10;;;20.80;46.00;;;;;;5034462;28;20037;-61
2022/03/01 09:03:31;;;;;;;8.20;4.15;;;20.80;46.00;;;;;;5029290;28;20050;-61
2022/03/01 09:05:57;;;;;;;8.30;4.18;;;20.80;46.00;;;;;;5013867;28;20057;-63
2022/03/01 09:08:22;;;;;;;6.90;4.50;;;20.80;46.00;;;;;;5013259;28;20054;-62
2022/03/01 09:10:48;;;;;;;8.57;4.68;;;20.80;46.00;;;;;;5013637;28;20046;-61
2022/03/01 09:13:13;;;;;;;7.20;4.32;;;20.80;46.10;;;;;;5012373;28;20045;-61
2022/03/01 09:15:39;;;;;;;9.02;4.65;;;20.80;46.10;;;;;;5014456;28;20081;-61
2022/03/01 09:18:05;;;;;;;8.77;5.03;;;20.80;46.10;;;;;;5013488;28;20513;-61
2022/03/01 09:20:31;;;;;;;8.32;4.68;;;20.90;46.20;;;;;;5014470;28;20516;-61
2022/03/01 09:22:57;;;;;;;7.75;4.60;;;20.90;46.20;;;;;;5014255;28;20042;-61
2022/03/01 09:25:23;;;;;;;7.93;4.45;;;20.90;46.20;;;;;;5013553;28;20046;-60
2022/03/01 09:27:48;;;;;;;7.20;4.53;;;20.90;46.20;;;;;;5013151;28;20069;-61
2022/03/01 09:30:14;;;;;;;6.82;4.78;;;20.90;46.20;;;;;;5014133;28;20085;-62
2022/03/01 09:32:40;;;;;;;7.80;4.40;;;20.90;46.20;;;;;;5012721;28;20045;-61
2022/03/01 09:35:06;;;;;;;7.05;4.53;;;21.00;46.20;;;;;;5013935;28;20050;-61
2022/03/01 09:37:32;;;;;;;7.82;5.07;;;21.00;46.20;;;;;;5014039;28;20037;-61
2022/03/01 09:40:02;;;;;;;7.25;4.93;;;21.00;46.00;;;;;;5012351;28;20088;-62
2022/03/01 09:42:27;;;;;;;9.40;4.40;;;21.00;45.80;;;;;;5013308;28;20044;-61
2022/03/01 09:44:54;;;;;;;9.85;4.90;;;21.00;46.00;;;;;;5013370;28;20078;-62
2022/03/01 09:47:19;;;;;;;8.98;4.45;;;21.00;46.10;;;;;;5012547;28;20030;-61
2022/03/01 09:49:45;;;;;;;7.60;4.65;;;21.00;46.20;;;;;;5013767;28;20129;-62
2022/03/01 09:52:10;;;;;;;8.80;4.78;;;21.00;46.20;;;;;;5013024;28;20477;-62
2022/03/01 09:54:36;;;;;;;7.50;4.82;;;21.10;46.40;;;;;;5011907;28;20076;-62
2022/03/01 09:57:02;;;;;;;7.43;4.55;;;21.10;46.50;;;;;;5013932;28;20550;-61
2022/03/01 09:59:27;;;;;;;8.50;4.35;;;21.10;46.50;;;;;;5013722;28;20056;-61
2022/03/01 10:01:54;;;;;;;7.22;4.45;;;21.10;46.60;;;;;;5012821;28;20056;-61
2022/03/01 10:04:20;;;;;;;7.18;4.20;;;21.10;46.70;;;;;;5012346;28;20140;-63
2022/03/01 10:06:47;;;;;;;6.50;4.40;;;21.10;46.70;;;;;;5013468;28;20129;-62
2022/03/01 10:09:30;;;;;;;6.80;4.32;;;21.10;46.70;;;;;;5010913;28;20054;-62
2022/03/01 10:12:03;;;;;;;9.25;4.82;;;21.20;46.80;;;;;;5013608;28;20107;-61
2022/03/01 10:14:29;;;;;;;9.52;4.85;;;21.20;46.80;;;;;;5012814;28;20038;-62
2022/03/01 10:16:55;;;;;;;7.40;4.75;;;21.20;46.80;;;;;;5013869;28;20485;-60
2022/03/01 10:19:21;;;;;;;7.72;4.28;;;21.20;46.80;;;;;;5013703;28;20081;-61
2022/03/01 10:22:07;;;;;;;7.60;4.43;;;21.20;46.80;;;;;;5012105;28;20060;-61
2022/03/01 10:24:32;;;;;;;6.28;4.38;;;21.20;46.80;;;;;;5012911;28;20111;-61
2022/03/01 10:26:59;;;;;;;6.78;4.47;;;21.20;46.80;;;;;;5013433;28;20046;-61
2022/03/01 10:29:28;;;;;;;8.18;4.43;;;21.20;47.00;;;;;;5011277;28;20042;-61
2022/03/01 10:32:00;;;;;;;7.18;4.38;;;21.20;47.00;;;;;;5009831;28;20045;-61
2022/03/01 10:34:27;;;;;;;7.35;4.13;;;21.20;47.00;;;;;;5012744;28;20050;-63
2022/03/01 10:36:53;;;;;;;7.72;4.43;;;21.20;47.10;;;;;;5012539;28;20049;-62
2022/03/01 10:39:36;;;;;;;5.68;3.90;;;21.20;47.30;;;;;;5012874;28;20077;-61
2022/03/01 10:42:03;;;;;;;6.70;4.60;;;21.10;47.60;;;;;;5012910;28;20042;-65
2022/03/01 10:44:29;;;;;;;6.20;4.15;;;21.10;47.40;;;;;;5012199;28;20054;-63
2022/03/01 10:46:56;;;;;;;7.93;4.28;;;21.10;47.40;;;;;;5012847;28;20073;-63
2022/03/01 10:49:42;;;;;;;6.25;4.18;;;21.10;47.40;;;;;;5011877;28;20061;-62
2022/03/01 10:52:08;;;;;;;7.63;4.25;;;21.10;47.10;;;;;;5012564;28;20058;-63
2022/03/01 10:54:38;;;;;;;8.23;4.47;;;21.10;47.20;;;;;;5011703;28;20668;-61
2022/03/01 10:57:05;;;;;;;13.15;4.75;;;21.10;47.20;;;;;;5010799;28;20052;-61
2022/03/01 10:59:32;;;;;;;6.97;4.50;;;21.10;47.10;;;;;;5013111;28;20054;-61
2022/03/01 11:01:58;;;;;;;7.13;4.35;;;21.10;47.10;;;;;;5012996;28;20042;-61
2022/03/01 11:04:27;;;;;;;6.53;4.18;;;21.00;47.00;;;;;;5011610;28;20119;-61
2022/03/01 11:07:04;;;;;;;6.75;4.22;;;21.00;47.00;;;;;;5010822;28;20052;-61
2022/03/01 11:09:31;;;;;;;8.82;4.07;;;21.00;47.20;;;;;;5011191;28;20055;-61
2022/03/01 11:11:57;;;;;;;7.30;4.10;;;21.00;47.20;;;;;;5012060;28;20552;-61
2022/03/01 11:14:26;;;;;;;7.60;3.92;;;21.00;47.20;;;;;;5011841;28;20046;-61
2022/03/01 11:17:24;;;;;;;8.82;4.25;;;21.00;47.30;;;;;;5011822;28;20050;-61
2022/03/01 11:19:56;;;;;;;;;;;21.00;47.30;;;;;;4991626;28;20090;-61
2022/03/01 11:22:38;;;;;;;8.63;4.50;;;21.00;47.20;;;;;;4992694;28;20361;-61
2022/03/01 11:25:04;;;;;;;6.78;4.05;;;21.00;47.20;;;;;;4998596;28;20045;-60
2022/03/01 11:27:30;;;;;;;8.05;4.88;;;21.00;47.20;;;;;;5010911;28;20073;-60
2022/03/01 11:30:09;;;;;;;7.90;4.50;;;21.00;47.20;;;;;;4993613;28;20124;-60
2022/03/01 11:32:42;;;;;;;7.68;4.60;;;21.00;47.20;;;;;;4990502;28;20050;-61
2022/03/01 11:35:22;;;;;;;7.05;4.70;;;21.00;47.20;;;;;;4992074;28;20042;-61
2022/03/01 11:38:18;;;;;;;8.85;4.60;;;21.00;47.30;;;;;;4991947;28;20046;-61
2022/03/01 11:40:46;;;;;;;8.15;4.70;;;21.00;47.20;;;;;;5009783;28;20428;-60
2022/03/01 11:43:16;;;;;;;5.97;4.03;;;21.00;47.20;;;;;;5011575;28;20049;-60
2022/03/01 11:45:47;;;;;;;8.05;3.97;;;21.10;47.30;;;;;;5011219;28;20417;-61
2022/03/01 11:48:14;;;;;;;7.05;4.05;;;21.00;47.20;;;;;;5011664;28;20041;-61
2022/03/01 11:50:44;;;;;;;8.05;4.10;;;21.10;47.20;;;;;;5011267;28;20092;-60
2022/03/01 11:53:10;;;;;;;8.02;4.75;;;21.10;47.30;;;;;;5010848;28;20052;-61
2022/03/01 11:55:44;;;;;;;7.65;4.57;;;21.10;47.20;;;;;;5011529;28;20046;-61
2022/03/01 11:58:10;;;;;;;8.40;4.05;;;21.10;47.20;;;;;;5015655;28;20045;-61
2022/03/01 12:00:37;;;;;;;9.32;4.85;;;21.10;47.30;;;;;;5012283;28;20118;-61
2022/03/01 12:03:03;;;;;;;8.23;4.30;;;21.10;48.00;;;;;;5015043;28;20390;-61
2022/03/01 12:05:28;;;;;;;6.45;3.97;;;21.10;47.30;;;;;;5013526;28;20046;-63
2022/03/01 12:07:54;;;;;;;7.05;4.32;;;21.10;47.30;;;;;;5013932;28;20494;-61
2022/03/01 12:10:24;;;;;;;19.52;8.27;;;21.10;47.30;;;;;;5014578;28;20064;-61
2022/03/01 12:12:53;;;;;;;21.30;9.63;;;21.10;47.80;;;;;;5014929;28;20077;-61
2022/03/01 12:15:29;;;;;;;15.98;8.48;;;21.10;48.30;;;;;;5014202;28;20042;-61
2022/03/01 12:17:55;;;;;;;22.17;9.35;;;21.10;48.50;;;;;;5013100;28;20449;-61
2022/03/01 12:20:21;;;;;;;25.25;10.48;;;21.20;48.70;;;;;;5014614;28;20470;-62
2022/03/01 12:22:58;;;;;;;16.15;8.77;;;21.20;49.40;;;;;;5013398;28;20486;-62
2022/03/01 12:25:24;;;;;;;23.98;11.60;;;21.20;49.50;;;;;;5014203;28;20575;-61
2022/03/01 12:27:50;;;;;;;25.73;13.90;;;21.30;49.30;;;;;;5012870;28;20077;-61
2022/03/01 12:30:18;;;;;;;28.67;12.70;;;21.30;49.30;;;;;;5014431;28;20042;-61
2022/03/01 12:32:49;;;;;;;21.75;12.45;;;21.20;49.40;;;;;;5014537;28;20038;-62
2022/03/01 12:35:15;;;;;;;20.85;10.90;;;21.30;49.70;;;;;;5013735;28;20401;-62
2022/03/01 12:37:40;;;;;;;35.90;17.50;;;21.30;49.60;;;;;;5013797;28;20050;-61
2022/03/01 12:40:07;;;;;;;25.15;10.68;;;21.30;49.40;;;;;;5013994;28;20085;-60
2022/03/01 12:42:32;;;;;;;23.75;10.82;;;21.40;49.40;;;;;;5013500;28;20057;-61